AIRPORT ID: M66

DATE: 2021-12-09 ZULU TIME: 1.15 LOCAL TIME: 10.15


METAR Km66 090115Z AUTO 00000KT 10SM 18/16 A3012

ALTIMETER: A3012 Q1020

DENSITY ALT: 9100 Ft

WIND DIRECT: 50

WIND SPEED: 1 Gust

WIND CONDITIONS:

VISIBILTY: 10SM 9999M

TEMPERATURE: 65 F 18 C

DEW POINT: 61 F 16 C

HUMID: 87%

LCL: 1,000-3,000 feet

RADIO CHECK: 0

ADVISARIES: 0

GREETINGS: 0

CONVERSATIONS: 0